KCVG

Cincinnati / Northern Kentucky International Airport

Covington, Kentucky, USA
METAR KCVG 181352Z 03003KT 6SM BR FEW250 M01/M03 A3024 RMK AO2 SLP248 T10111028
Observed Flight Rules
Dec-18 @ 13:52 UTC (16 minutes ago) Visual Flight Rules
Wind Visibility Clouds Conditions
30° at 3 knots 6 miles
  • Few at 25,000' AGL
  • Mist
Temperatures Readings
Current -1°C / 30°F
Dewpoint -3°C / 27°F
Humidity 86%
Altimeter 30.24" Hg
Pressure 1024.8 hPa
Elevation 269
METAR KCVG 181352Z 03003KT 6SM BR FEW250 M01/M03 A3024 RMK AO2 SLP248 T10111028
Observed Flight Rules
Dec-18 @ 13:52 UTC
(16 minutes ago)
VFR
Wind Visibility
30° at 3 knots 6 miles
Clouds
  • Few at 25,000' AGL
Conditions
  • Mist
Temperature Dewpoint
-1°C / 30°F -3°C / 27°F
Humidity Altimeter Pressure
86% 30.24" Hg 1024.8 hPa